Time;durP1;ratioP1;P1;durP2;ratioP2;P2;SDS_P1;SDS_P2;PMS_P1;PMS_P2;Temp;Humidity;BMP_temperature;BMP_pressure;BME280_temperature;BME280_humidity;BME280_pressure;Samples;Min_cycle;Max_cycle;Signal;HPM_P1;HPM_P2
2021/04/05 06:16:39;;;;;;;10.72;4.33;;;;;;;2.06;76.27;99327.28;1816781;77;26489;-58
2021/04/05 06:19:51;;;;;;;8.50;4.10;;;;;;;2.15;75.88;99327.88;1720634;80;21705;-57
2021/04/05 06:22:50;;;;;;;7.15;3.90;;;;;;;2.34;75.50;99324.75;1762785;81;21280;-60
2021/04/05 06:25:27;;;;;;;9.03;3.52;;;;;;;2.60;75.03;99320.67;1762407;81;21138;-60
2021/04/05 06:28:10;;;;;;;10.82;4.90;;;;;;;2.89;74.50;99323.63;1762152;81;21705;-57
2021/04/05 06:31:17;;;;;;;14.43;7.42;;;;;;;3.13;73.64;99318.32;1747435;78;21551;-56
2021/04/05 06:33:50;;;;;;;10.43;5.20;;;;;;;3.42;72.56;99319.91;1744933;81;21533;-56
2021/04/05 06:36:45;;;;;;;6.85;4.00;;;;;;;3.70;71.33;99313.35;1720974;81;21551;-56
2021/04/05 06:39:24;;;;;;;6.53;3.20;;;;;;;3.91;70.57;99309.49;1734294;82;21582;-57
2021/04/05 06:42:28;;;;;;;13.00;4.72;;;;;;;4.11;67.71;99311.30;1735758;82;21147;-58
2021/04/05 06:45:42;;;;;;;10.50;4.50;;;;;;;4.26;66.10;99307.42;1737976;82;21174;-60
2021/04/05 06:48:32;;;;;;;11.70;4.53;;;;;;;4.40;65.24;99308.86;1719793;83;21684;-59
2021/04/05 06:51:22;;;;;;;9.10;4.22;;;;;;;4.54;64.49;99298.20;1721339;82;21768;-57
2021/04/05 06:54:22;;;;;;;7.12;3.75;;;;;;;4.74;61.98;99303.45;1709723;82;21665;-59
2021/04/05 06:57:15;;;;;;;15.43;6.83;;;;;;;4.86;60.17;99304.52;1739423;82;21745;-57
2021/04/05 07:00:05;;;;;;;12.63;6.05;;;;;;;5.00;59.36;99303.34;1718738;83;21159;-56
2021/04/05 07:03:14;;;;;;;6.37;2.70;;;;;;;5.09;58.40;99305.15;1730903;82;21614;-56
2021/04/05 07:06:19;;;;;;;5.30;2.50;;;;;;;5.19;56.22;99299.16;1738751;82;21792;-55
2021/04/05 07:09:20;;;;;;;5.35;3.05;;;;;;;5.31;54.54;99302.80;1720888;83;21099;-56
2021/04/05 07:12:27;;;;;;;3.70;2.08;;;;;;;5.40;53.61;99290.80;1724914;83;21637;-55
2021/04/05 07:15:32;;;;;;;5.05;2.55;;;;;;;5.53;52.60;99291.86;1719710;83;21606;-56
2021/04/05 07:18:27;;;;;;;5.45;3.05;;;;;;;5.64;51.27;99290.41;1763946;80;21543;-57
2021/04/05 07:21:38;;;;;;;16.12;8.43;;;;;;;5.71;49.35;99282.91;1786557;80;22026;-54
2021/04/05 07:27:32;;;;;;;5.95;2.27;;;;;;;5.90;48.13;99272.06;1737248;81;21148;-56
2021/04/05 07:30:13;;;;;;;11.95;5.87;;;;;;;6.01;47.38;99273.70;1716113;82;21783;-56
2021/04/05 07:32:57;;;;;;;4.33;2.08;;;;;;;6.12;47.53;99268.36;1714076;83;21288;-63
2021/04/05 07:35:30;;;;;;;9.63;5.60;;;;;;;6.18;46.54;99271.70;1713955;84;21724;-57
2021/04/05 07:38:20;;;;;;;8.68;2.70;;;;;;;6.25;46.63;99262.88;1713127;84;21162;-55
2021/04/05 07:41:10;;;;;;;11.15;3.17;;;;;;;6.33;47.25;99257.78;1692668;84;21791;-58
2021/04/05 07:44:04;;;;;;;4.47;2.20;;;;;;;6.45;46.14;99259.73;1702876;82;21792;-57
2021/04/05 07:46:44;;;;;;;5.12;2.30;;;;;;;6.58;44.67;99254.22;1715476;82;21932;-56
2021/04/05 07:49:27;;;;;;;3.27;2.12;;;;;;;6.71;44.14;99251.66;1729493;82;21160;-56
2021/04/05 07:52:28;;;;;;;2.75;1.70;;;;;;;6.82;43.11;99242.83;1723628;81;22315;-56
2021/04/05 07:54:56;;;;;;;2.47;1.67;;;;;;;6.93;43.29;99233.55;1713756;82;21325;-56
2021/04/05 07:57:45;;;;;;;4.92;2.20;;;;;;;7.14;42.58;99239.80;1719732;82;21565;-57
2021/04/05 08:00:20;;;;;;;4.50;2.08;;;;;;;7.27;42.07;99233.75;1723242;81;21665;-57
2021/04/05 08:03:21;;;;;;;2.85;2.08;;;;;;;7.35;41.53;99234.80;1728147;82;21175;-55
2021/04/05 08:06:01;;;;;;;4.08;2.42;;;;;;;7.34;41.43;99233.16;1722538;83;21313;-55
2021/04/05 08:08:50;;;;;;;6.10;3.55;;;;;;;7.35;41.48;99226.52;1713433;83;21160;-56
2021/04/05 08:11:45;;;;;;;5.12;2.55;;;;;;;7.43;41.37;99233.07;1684884;85;21176;-57
2021/04/05 08:14:31;;;;;;;13.60;4.60;;;;;;;7.50;39.90;99224.19;1685184;85;21294;-58
2021/04/05 08:17:20;;;;;;;4.40;2.40;;;;;;;7.54;40.25;99212.05;1685822;84;21702;-58
2021/04/05 08:20:14;;;;;;;2.65;1.70;;;;;;;7.69;40.04;99206.30;1685009;85;21825;-56
2021/04/05 08:23:04;;;;;;;;;;;;;;;7.74;40.35;99202.77;1686466;85;21547;-56
2021/04/05 08:26:00;;;;;;;2.40;1.30;;;;;;;7.73;40.39;99193.34;1695844;83;20156;-56
2021/04/05 08:28:49;;;;;;;1.60;1.47;;;;;;;7.68;39.90;99181.28;1690122;84;21594;-56
2021/04/05 08:31:50;;;;;;;8.10;4.10;;;;;;;7.64;39.51;99178.18;1682411;84;21151;-57
2021/04/05 08:34:42;;;;;;;7.42;3.40;;;;;;;7.61;39.29;99179.77;1705282;84;21229;-60
2021/04/05 08:37:55;;;;;;;5.30;3.15;;;;;;;7.59;38.89;99173.10;1690824;84;21293;-57
2021/04/05 08:40:31;;;;;;;3.87;2.58;;;;;;;7.70;39.07;99165.88;1685460;85;21581;-57
2021/04/05 08:43:20;;;;;;;2.60;2.10;;;;;;;7.99;39.15;99166.84;1687738;84;21289;-57
2021/04/05 08:46:23;;;;;;;7.85;3.33;;;;;;;8.08;38.77;99153.41;1703154;84;21184;-56
2021/04/05 08:49:00;;;;;;;4.20;3.00;;;;;;;8.16;39.22;99155.23;1713281;83;21617;-55
2021/04/05 08:51:39;;;;;;;10.35;3.15;;;;;;;8.21;38.63;99139.48;1643147;87;21605;-55
2021/04/05 08:54:08;;;;;;;4.62;2.42;;;;;;;8.30;38.94;99153.34;1703635;84;22099;-55
2021/04/05 08:56:43;;;;;;;4.83;2.83;;;;;;;8.37;38.94;99143.95;1643229;86;21174;-57
2021/04/05 08:59:16;;;;;;;4.97;2.65;;;;;;;8.36;38.84;99135.34;1703151;84;21544;-55
2021/04/05 09:01:48;;;;;;;4.55;2.70;;;;;;;8.34;38.76;99138.56;1713578;84;21678;-55
2021/04/05 09:04:22;;;;;;;3.47;2.47;;;;;;;8.35;38.65;99128.50;1712916;83;21317;-55
2021/04/05 09:07:05;;;;;;;5.70;3.33;;;;;;;8.30;38.75;99125.52;1643331;87;21187;-54
2021/04/05 09:09:34;;;;;;;6.42;3.15;;;;;;;8.23;38.37;99132.33;1714064;84;21581;-56
2021/04/05 09:12:05;;;;;;;9.05;4.53;;;;;;;8.11;38.14;99116.66;1712108;84;21159;-55
2021/04/05 09:14:37;;;;;;;8.08;5.17;;;;;;;8.03;38.49;99118.75;1694730;85;21567;-58
2021/04/05 09:17:26;;;;;;;6.92;4.10;;;;;;;7.98;38.77;99106.69;1646829;86;22199;-57
2021/04/05 09:20:35;;;;;;;4.42;2.60;;;;;;;7.94;39.14;99105.84;1694014;83;21615;-60
2021/04/05 09:23:33;;;;;;;15.15;6.15;;;;;;;7.88;39.22;99103.86;1697872;84;21224;-57
2021/04/05 09:26:16;;;;;;;5.85;2.40;;;;;;;7.81;39.33;99096.68;1693833;84;21601;-58
2021/04/05 09:29:23;;;;;;;5.42;3.30;;;;;;;7.79;39.25;99098.62;1699718;83;21535;-59
2021/04/05 09:32:06;;;;;;;5.95;2.72;;;;;;;7.77;39.17;99094.56;1696442;83;21570;-58
2021/04/05 09:35:06;;;;;;;6.10;4.60;;;;;;;7.73;39.30;99082.83;1671136;86;21685;-61
2021/04/05 09:38:11;;;;;;;22.87;6.40;;;;;;;7.78;39.20;99079.28;1669865;84;21574;-56
2021/04/05 09:40:46;;;;;;;;;;;;;;;7.86;39.09;99072.81;1693446;83;21729;-57
2021/04/05 09:43:38;;;;;;;6.83;3.30;;;;;;;7.95;38.54;99073.66;1712537;83;20394;-57
2021/04/05 09:46:30;;;;;;;9.08;5.00;;;;;;;7.92;38.36;99072.19;1715694;83;22364;-56
2021/04/05 09:49:45;;;;;;;8.48;4.78;;;;;;;7.91;38.86;99071.87;1666789;86;21758;-58
2021/04/05 09:53:09;;;;;;;3.05;2.62;;;;;;;7.95;39.49;99071.89;1669836;85;21191;-57
2021/04/05 09:55:41;;;;;;;6.45;4.37;;;;;;;8.00;39.00;99061.00;1671491;86;21257;-57
2021/04/05 09:58:43;;;;;;;5.42;3.08;;;;;;;8.11;39.77;99063.33;1688075;85;21218;-57
2021/04/05 10:01:16;;;;;;;4.97;3.22;;;;;;;8.24;39.55;99061.08;1647050;86;21200;-57
2021/04/05 10:03:45;;;;;;;5.58;3.55;;;;;;;8.28;39.04;99062.41;1688623;85;21364;-56
2021/04/05 10:06:18;;;;;;;6.10;2.40;;;;;;;8.29;38.95;99060.12;1672123;86;21662;-57
2021/04/05 10:08:48;;;;;;;5.10;2.37;;;;;;;8.45;39.27;99045.57;1689002;85;21586;-56
2021/04/05 10:11:16;;;;;;;2.40;1.75;;;;;;;8.65;38.03;99040.87;1672135;86;21195;-54
2021/04/05 10:13:56;;;;;;;2.50;1.85;;;;;;;8.88;37.66;99036.17;1688783;85;21654;-56
2021/04/05 10:16:24;;;;;;;3.52;2.30;;;;;;;9.18;38.28;99029.94;1672243;86;21615;-56
2021/04/05 10:19:01;;;;;;;4.30;2.65;;;;;;;9.55;37.18;99034.59;1688836;85;21618;-55
2021/04/05 10:21:29;;;;;;;2.77;2.10;;;;;;;9.75;36.60;99016.78;1672346;86;21651;-54
2021/04/05 10:23:58;;;;;;;4.72;2.40;;;;;;;9.93;36.21;99017.33;1688707;85;21190;-55
2021/04/05 10:26:32;;;;;;;8.18;2.95;;;;;;;10.08;35.76;99016.14;1657217;86;21805;-55
2021/04/05 10:29:04;;;;;;;4.53;2.22;;;;;;;10.15;34.89;99013.66;1676363;85;21197;-55
2021/04/05 10:31:34;;;;;;;2.50;2.22;;;;;;;10.21;35.57;99010.36;1676060;86;21153;-58
2021/04/05 10:34:06;;;;;;;3.25;2.40;;;;;;;10.39;36.09;99003.09;1675113;85;21622;-56
2021/04/05 10:36:47;;;;;;;2.37;1.95;;;;;;;10.43;35.17;98992.63;1675371;86;21190;-57
2021/04/05 10:39:16;;;;;;;2.92;1.85;;;;;;;10.41;36.03;98995.08;1675549;86;21214;-56
2021/04/05 10:41:55;;;;;;;1.90;1.77;;;;;;;10.64;35.96;98997.70;1675676;86;21228;-56
2021/04/05 10:44:25;;;;;;;4.00;2.40;;;;;;;10.83;35.68;98989.38;1643519;86;21653;-55
2021/04/05 10:47:00;;;;;;;1.95;1.70;;;;;;;11.00;34.28;98985.63;1669246;86;21345;-57
2021/04/05 10:49:30;;;;;;;;;;;;;;;10.86;33.43;98984.27;1671519;86;21158;-55
2021/04/05 10:52:09;;;;;;;3.47;2.25;;;;;;;10.59;32.93;98981.23;1669304;86;20144;-55
2021/04/05 10:54:42;;;;;;;3.15;2.02;;;;;;;10.29;32.49;98981.61;1646685;85;21648;-55
2021/04/05 10:57:13;;;;;;;2.75;1.70;;;;;;;10.11;32.98;98979.73;1662845;85;21739;-55
2021/04/05 10:59:51;;;;;;;2.33;1.77;;;;;;;10.20;34.19;98966.47;1676026;85;21288;-56
2021/04/05 11:02:38;;;;;;;4.03;1.92;;;;;;;10.49;34.04;98961.88;1668121;86;21182;-57
2021/04/05 11:05:16;;;;;;;3.15;2.15;;;;;;;10.69;34.36;98964.03;1669074;86;21666;-56
2021/04/05 11:07:48;;;;;;;2.65;1.87;;;;;;;10.89;33.60;98956.50;1678570;85;21189;-54
2021/04/05 11:10:20;;;;;;;4.05;1.82;;;;;;;10.80;33.17;98953.12;1669062;86;21167;-55
2021/04/05 11:12:57;;;;;;;3.72;1.82;;;;;;;10.61;33.89;98963.58;1669390;86;21186;-55
2021/04/05 11:18:09;;;;;;;2.67;2.33;;;;;;;10.15;33.69;98945.28;1834798;77;22165;-56
2021/04/05 11:20:40;;;;;;;6.92;3.77;;;;;;;9.87;33.74;98948.86;1793353;80;21143;-55
2021/04/05 11:23:20;;;;;;;4.90;3.40;;;;;;;9.65;34.66;98945.73;1793290;80;21151;-55
2021/04/05 11:25:51;;;;;;;3.85;3.00;;;;;;;9.53;34.86;98937.95;1793310;80;21558;-57
